Time;durP1;ratioP1;P1;durP2;ratioP2;P2;SDS_P1;SDS_P2;PMS_P1;PMS_P2;Temp;Humidity;BMP_temperature;BMP_pressure;BME280_temperature;BME280_humidity;BME280_pressure;Samples;Min_cycle;Max_cycle;Signal;HPM_P1;HPM_P2
2023/03/01 00:01:23;;;;;;;25.97;20.67;;;1.10;1.00;;;;;;5047587;28;20522;-54
2023/03/01 00:03:49;;;;;;;29.50;19.23;;;1.10;1.00;;;;;;5063351;28;21009;-53
2023/03/01 00:06:15;;;;;;;30.03;20.27;;;1.10;1.00;;;;;;5053098;28;20924;-52
2023/03/01 00:08:41;;;;;;;30.03;22.47;;;1.10;1.00;;;;;;5053843;28;20485;-54
2023/03/01 00:11:13;;;;;;;26.87;19.30;;;1.10;1.00;;;;;;5043495;28;20461;-55
2023/03/01 00:13:39;;;;;;;29.60;19.30;;;1.10;1.00;;;;;;5035383;28;20185;-52
2023/03/01 00:16:07;;;;;;;27.80;19.50;;;1.10;1.00;;;;;;5038779;28;20446;-54
2023/03/01 00:18:33;;;;;;;27.50;19.33;;;1.00;1.00;;;;;;5038654;28;20464;-54
2023/03/01 00:20:59;;;;;;;29.00;19.37;;;1.00;1.00;;;;;;5038307;28;21037;-55
2023/03/01 00:23:25;;;;;;;25.93;19.47;;;1.00;1.00;;;;;;5039399;28;20477;-55
2023/03/01 00:25:52;;;;;;;27.30;19.50;;;1.10;1.00;;;;;;5042545;28;20498;-52
2023/03/01 00:28:18;;;;;;;31.90;18.93;;;1.10;1.00;;;;;;5055832;28;20476;-54
2023/03/01 00:30:44;;;;;;;29.83;20.73;;;1.00;1.00;;;;;;5052298;28;20453;-55
2023/03/01 00:33:10;;;;;;;27.57;18.40;;;1.10;1.00;;;;;;5050163;28;20185;-53
2023/03/01 00:35:36;;;;;;;28.33;19.83;;;1.10;1.00;;;;;;5041045;28;20452;-54
2023/03/01 00:38:02;;;;;;;30.80;20.27;;;1.10;1.00;;;;;;5039354;28;20198;-53
2023/03/01 00:40:29;;;;;;;30.10;22.10;;;1.00;1.00;;;;;;5046591;28;20211;-52
2023/03/01 00:42:55;;;;;;;32.07;20.30;;;1.00;1.00;;;;;;5042540;28;20874;-53
2023/03/01 00:45:21;;;;;;;26.70;18.67;;;0.90;1.00;;;;;;5058328;28;20529;-53
2023/03/01 00:47:48;;;;;;;28.80;20.53;;;1.10;1.00;;;;;;5038948;28;20205;-53
2023/03/01 00:50:14;;;;;;;25.83;19.30;;;1.00;1.00;;;;;;5041446;28;20880;-53
2023/03/01 00:52:40;;;;;;;26.60;19.70;;;0.80;1.00;;;;;;5043591;28;20575;-52
2023/03/01 00:55:06;;;;;;;29.23;19.93;;;0.70;1.00;;;;;;5039734;28;20448;-52
2023/03/01 00:57:32;;;;;;;30.67;20.63;;;0.60;1.00;;;;;;5040154;28;20191;-53
2023/03/01 00:59:57;;;;;;;25.93;17.40;;;0.60;1.00;;;;;;5042416;28;20523;-57
2023/03/01 01:02:23;;;;;;;23.60;18.67;;;0.60;1.00;;;;;;5044863;28;20192;-53
2023/03/01 01:04:49;;;;;;;26.97;18.10;;;0.60;1.00;;;;;;5041421;28;20334;-51
2023/03/01 01:07:15;;;;;;;22.70;16.73;;;0.60;1.00;;;;;;5054131;28;20274;-52
2023/03/01 01:09:41;;;;;;;21.47;16.10;;;0.60;1.00;;;;;;5045248;28;20480;-51
2023/03/01 01:12:07;;;;;;;21.80;17.00;;;0.50;1.00;;;;;;5051379;28;20465;-55
2023/03/01 01:14:33;;;;;;;22.90;16.67;;;0.60;1.00;;;;;;5050855;28;20457;-54
2023/03/01 01:16:59;;;;;;;26.57;15.77;;;0.50;1.00;;;;;;5054081;28;20457;-55
2023/03/01 01:19:25;;;;;;;29.00;16.30;;;0.50;1.00;;;;;;5056372;28;20474;-54
2023/03/01 01:21:51;;;;;;;21.33;15.93;;;0.50;1.00;;;;;;5046677;28;20185;-53
2023/03/01 01:24:18;;;;;;;24.20;16.63;;;0.40;1.00;;;;;;5050455;28;20440;-54
2023/03/01 01:26:44;;;;;;;21.80;16.07;;;0.40;1.00;;;;;;5052440;28;20527;-54
2023/03/01 01:29:10;;;;;;;23.97;15.43;;;0.40;1.00;;;;;;5058091;28;20973;-55
2023/03/01 01:31:38;;;;;;;21.80;15.80;;;0.30;1.00;;;;;;5045147;28;20493;-55
2023/03/01 01:34:07;;;;;;;20.53;15.43;;;0.30;1.00;;;;;;5058299;28;20456;-52
2023/03/01 01:36:34;;;;;;;23.50;17.00;;;0.30;1.00;;;;;;5049832;28;20489;-53
2023/03/01 01:39:00;;;;;;;23.70;15.80;;;0.30;1.00;;;;;;5049901;28;20962;-54
2023/03/01 01:41:28;;;;;;;21.70;16.93;;;0.00;1.00;;;;;;5045744;28;20443;-53
2023/03/01 01:44:16;;;;;;;21.80;15.70;;;0.30;1.00;;;;;;5052617;28;20522;-55
2023/03/01 01:46:55;;;;;;;23.73;17.37;;;0.20;1.00;;;;;;5053947;28;20453;-54
2023/03/01 01:49:47;;;;;;;22.67;17.00;;;0.30;1.00;;;;;;5045945;28;20472;-54
2023/03/01 01:52:38;;;;;;;25.10;16.67;;;0.30;1.00;;;;;;5037222;28;20586;-53
2023/03/01 01:55:14;;;;;;;19.73;14.57;;;0.30;1.00;;;;;;5043700;28;20702;-53
2023/03/01 01:57:47;;;;;;;22.30;16.27;;;0.20;1.00;;;;;;5050556;28;20452;-55
2023/03/01 02:00:21;;;;;;;26.10;15.73;;;0.20;1.00;;;;;;5050112;28;20473;-56
2023/03/01 02:02:51;;;;;;;23.87;16.60;;;0.20;1.00;;;;;;5047134;28;20480;-55
2023/03/01 02:05:36;;;;;;;26.17;17.63;;;0.20;1.00;;;;;;5054566;28;20450;-56
2023/03/01 02:08:01;;;;;;;23.90;16.17;;;0.10;1.00;;;;;;5049254;28;20445;-52
2023/03/01 02:10:28;;;;;;;22.57;16.40;;;0.20;1.00;;;;;;5045228;28;20952;-54
2023/03/01 02:12:55;;;;;;;23.13;17.13;;;0.20;1.00;;;;;;5044709;28;20979;-58
2023/03/01 02:15:22;;;;;;;22.27;16.23;;;0.10;1.00;;;;;;5043683;28;20591;-54
2023/03/01 02:17:49;;;;;;;25.60;17.93;;;0.10;1.00;;;;;;5047657;28;20452;-56
2023/03/01 02:20:24;;;;;;;25.73;17.67;;;0.10;1.00;;;;;;5058110;28;20466;-52
2023/03/01 02:22:50;;;;;;;26.90;17.37;;;0.10;1.00;;;;;;5050083;28;20449;-53
2023/03/01 02:25:19;;;;;;;26.37;17.90;;;0.00;1.00;;;;;;5040614;28;20527;-55
2023/03/01 02:27:59;;;;;;;25.80;17.33;;;0.10;1.00;;;;;;5040596;28;20456;-52
2023/03/01 02:30:25;;;;;;;27.20;17.77;;;0.00;1.00;;;;;;5043720;28;20448;-54
2023/03/01 02:32:54;;;;;;;27.37;18.90;;;0.00;1.00;;;;;;5059993;28;20461;-51
2023/03/01 02:35:21;;;;;;;23.17;17.47;;;-0.10;1.00;;;;;;5046102;28;20446;-55
2023/03/01 02:37:47;;;;;;;28.00;18.60;;;-0.10;1.00;;;;;;5065407;28;20459;-52
2023/03/01 02:40:21;;;;;;;30.27;17.43;;;0.00;1.00;;;;;;5045082;28;20475;-53
2023/03/01 02:42:58;;;;;;;26.20;18.90;;;0.00;1.00;;;;;;5040093;28;20540;-54
2023/03/01 02:45:25;;;;;;;25.93;16.43;;;-0.10;1.00;;;;;;5039429;28;20512;-53
2023/03/01 02:47:53;;;;;;;25.90;17.07;;;0.00;1.00;;;;;;5039788;28;20467;-53
2023/03/01 02:50:41;;;;;;;24.87;17.23;;;-0.10;1.00;;;;;;5043963;28;20589;-55
2023/03/01 02:53:19;;;;;;;26.40;18.17;;;-0.10;1.00;;;;;;5044092;28;20522;-52
2023/03/01 02:55:45;;;;;;;25.73;17.00;;;-0.10;1.00;;;;;;5055313;28;20437;-55
2023/03/01 02:58:11;;;;;;;29.43;18.97;;;-0.10;1.00;;;;;;5048543;28;20816;-54
2023/03/01 03:00:46;;;;;;;24.87;18.47;;;-0.10;1.00;;;;;;5052216;28;20217;-55
2023/03/01 03:03:18;;;;;;;28.90;18.70;;;-0.10;1.00;;;;;;5062867;28;20450;-55
2023/03/01 03:05:46;;;;;;;28.47;18.60;;;-0.10;1.00;;;;;;5061849;28;20449;-54
2023/03/01 03:08:11;;;;;;;29.13;19.60;;;-0.10;1.00;;;;;;5050101;28;20451;-55
2023/03/01 03:10:39;;;;;;;28.97;20.17;;;-0.20;1.00;;;;;;5040068;28;20504;-52
2023/03/01 03:13:12;;;;;;;25.73;18.80;;;-0.10;1.00;;;;;;5041388;28;20657;-54
2023/03/01 03:15:38;;;;;;;25.60;17.03;;;-0.20;1.00;;;;;;5046271;28;20453;-54
2023/03/01 03:18:08;;;;;;;26.60;18.60;;;-0.20;1.00;;;;;;5044850;28;21030;-56
2023/03/01 03:20:34;;;;;;;28.60;18.53;;;-0.30;1.00;;;;;;5040154;28;20482;-54
2023/03/01 03:23:00;;;;;;;22.63;17.30;;;-0.20;1.00;;;;;;5039713;28;20524;-57
2023/03/01 03:25:28;;;;;;;25.17;17.37;;;-0.30;1.00;;;;;;5037920;28;20819;-53
2023/03/01 03:27:56;;;;;;;29.10;17.77;;;-0.30;1.00;;;;;;5050080;28;20780;-56
2023/03/01 03:30:24;;;;;;;24.10;16.40;;;-0.30;1.00;;;;;;5047292;28;20450;-54
2023/03/01 03:32:53;;;;;;;25.53;16.47;;;-0.30;1.00;;;;;;5045979;28;20491;-53
2023/03/01 03:35:34;;;;;;;21.73;15.33;;;-0.40;1.00;;;;;;5037558;28;20569;-57
2023/03/01 03:38:05;;;;;;;21.20;15.73;;;-0.40;1.00;;;;;;5039527;28;20449;-53
2023/03/01 03:40:36;;;;;;;21.67;15.40;;;-0.40;1.00;;;;;;5041738;28;20999;-55
2023/03/01 03:43:03;;;;;;;23.63;15.03;;;-0.50;1.00;;;;;;5038606;28;20447;-52
2023/03/01 03:45:29;;;;;;;24.93;17.83;;;-0.50;1.00;;;;;;5039402;28;20464;-52
2023/03/01 03:47:54;;;;;;;23.17;16.80;;;-0.50;1.00;;;;;;5036637;28;20465;-54
2023/03/01 03:50:20;;;;;;;26.27;16.03;;;-0.60;1.00;;;;;;5038663;28;20274;-53
2023/03/01 03:52:47;;;;;;;22.30;16.07;;;-0.60;1.00;;;;;;5058012;28;20679;-54
2023/03/01 03:55:12;;;;;;;22.60;16.77;;;-0.50;1.00;;;;;;5056423;28;20194;-55
2023/03/01 03:57:40;;;;;;;23.63;16.53;;;-0.60;1.00;;;;;;5048361;28;20455;-55
2023/03/01 04:00:12;;;;;;;24.70;16.43;;;-0.60;1.00;;;;;;5046819;28;20509;-56
2023/03/01 04:02:42;;;;;;;23.77;17.00;;;-0.60;1.00;;;;;;5038801;28;20519;-54
2023/03/01 04:05:09;;;;;;;22.67;16.93;;;-0.60;1.00;;;;;;5037023;28;21027;-55
2023/03/01 04:07:35;;;;;;;23.07;15.80;;;-0.60;1.00;;;;;;5038665;28;20536;-53
2023/03/01 04:10:03;;;;;;;23.37;16.23;;;-0.60;1.00;;;;;;5039479;28;20540;-52
2023/03/01 04:12:29;;;;;;;30.67;18.23;;;-0.70;1.00;;;;;;5039632;28;20984;-56
2023/03/01 04:14:55;;;;;;;25.50;16.83;;;-0.70;1.00;;;;;;5039806;28;20449;-54
2023/03/01 04:17:20;;;;;;;23.07;15.37;;;-0.70;1.00;;;;;;5039796;28;20202;-56
2023/03/01 04:19:48;;;;;;;24.70;16.70;;;-0.70;1.00;;;;;;5040766;28;20226;-55
2023/03/01 04:22:18;;;;;;;27.20;17.10;;;-0.80;1.00;;;;;;5039574;28;20733;-53
2023/03/01 04:24:44;;;;;;;28.10;17.60;;;-0.80;1.00;;;;;;5037787;28;20453;-55
2023/03/01 04:27:11;;;;;;;22.53;15.40;;;-0.80;1.00;;;;;;5036257;28;20508;-54
2023/03/01 04:29:37;;;;;;;26.70;17.53;;;-0.80;1.00;;;;;;5045995;28;20452;-52
2023/03/01 04:32:03;;;;;;;26.13;17.93;;;-0.80;1.00;;;;;;5047775;28;20813;-56
2023/03/01 04:34:29;;;;;;;23.67;16.63;;;-0.80;1.00;;;;;;5045268;28;20453;-54
2023/03/01 04:36:55;;;;;;;23.57;17.70;;;-0.80;1.00;;;;;;5039143;28;20461;-53
2023/03/01 04:39:21;;;;;;;26.00;16.43;;;-0.80;1.00;;;;;;5037239;28;20474;-54
2023/03/01 04:41:46;;;;;;;24.70;16.80;;;-0.80;1.00;;;;;;5040141;28;20446;-52
2023/03/01 04:44:12;;;;;;;23.93;15.77;;;-0.90;1.00;;;;;;5037165;28;20491;-53
2023/03/01 04:46:38;;;;;;;25.77;16.60;;;-0.90;1.00;;;;;;5038497;28;20346;-52
2023/03/01 04:49:05;;;;;;;23.93;16.50;;;-0.90;1.00;;;;;;5037628;28;20199;-54
2023/03/01 04:51:32;;;;;;;27.73;17.40;;;-1.00;1.00;;;;;;5037812;28;20749;-55
2023/03/01 04:53:58;;;;;;;27.13;17.33;;;-1.00;1.00;;;;;;5037343;28;20480;-52
2023/03/01 04:56:23;;;;;;;25.83;17.23;;;-1.00;1.00;;;;;;5039419;28;20792;-53
2023/03/01 04:58:52;;;;;;;27.30;17.90;;;-1.00;1.00;;;;;;5038186;28;20511;-56
2023/03/01 05:01:20;;;;;;;28.00;17.87;;;-1.00;1.00;;;;;;5046676;28;20183;-57
2023/03/01 05:03:48;;;;;;;23.47;15.57;;;-1.00;1.00;;;;;;5048218;28;20441;-54
2023/03/01 05:06:15;;;;;;;28.53;18.67;;;-1.00;1.00;;;;;;5048844;28;20442;-54
2023/03/01 05:08:41;;;;;;;27.37;16.73;;;-1.00;1.00;;;;;;5055058;28;20457;-53
2023/03/01 05:11:08;;;;;;;26.40;16.33;;;-1.10;1.00;;;;;;5048447;28;20536;-53
2023/03/01 05:13:38;;;;;;;30.27;17.40;;;-1.20;1.00;;;;;;5048634;28;20446;-60
2023/03/01 05:16:05;;;;;;;28.47;17.30;;;-1.20;1.00;;;;;;5046715;28;20544;-55
2023/03/01 05:18:33;;;;;;;27.00;17.70;;;-1.20;1.00;;;;;;5046375;28;20507;-55
2023/03/01 05:21:17;;;;;;;29.77;18.23;;;-1.10;1.00;;;;;;5049729;28;20972;-55
2023/03/01 05:23:43;;;;;;;26.70;17.27;;;-1.10;1.00;;;;;;5050660;28;20459;-54
2023/03/01 05:26:08;;;;;;;26.80;18.83;;;-1.10;1.00;;;;;;5047621;28;20449;-54
2023/03/01 05:28:35;;;;;;;26.57;16.27;;;-1.10;1.00;;;;;;5050390;28;20448;-57
2023/03/01 05:31:00;;;;;;;25.43;16.40;;;-1.10;1.00;;;;;;5054365;28;20194;-55
2023/03/01 05:33:27;;;;;;;24.90;15.97;;;-1.10;1.00;;;;;;5061559;28;20540;-54
2023/03/01 05:35:53;;;;;;;27.50;16.93;;;-1.10;1.00;;;;;;5051052;28;20223;-54
2023/03/01 05:38:20;;;;;;;33.60;17.97;;;-1.10;1.00;;;;;;5047922;28;20706;-52
2023/03/01 05:40:47;;;;;;;28.63;17.43;;;-1.10;1.00;;;;;;5045405;28;20862;-53
2023/03/01 05:43:15;;;;;;;29.40;16.33;;;-1.10;1.00;;;;;;5049514;28;20445;-54
2023/03/01 05:45:41;;;;;;;24.13;16.70;;;-1.10;1.00;;;;;;5046534;28;20440;-57
2023/03/01 05:48:08;;;;;;;27.83;17.10;;;-1.10;1.00;;;;;;5047056;28;20531;-53
2023/03/01 05:50:36;;;;;;;33.43;18.47;;;-1.10;1.00;;;;;;5050470;28;20447;-56
2023/03/01 05:53:09;;;;;;;22.30;17.13;;;-1.10;1.00;;;;;;5047735;28;20551;-55
2023/03/01 05:55:36;;;;;;;29.13;17.70;;;-1.20;1.00;;;;;;5046023;28;20519;-54
2023/03/01 05:58:04;;;;;;;24.20;15.60;;;-1.10;1.00;;;;;;5045250;28;20449;-56
2023/03/01 06:00:30;;;;;;;28.57;17.40;;;-1.20;1.00;;;;;;5048090;28;20834;-54
2023/03/01 06:02:58;;;;;;;25.40;17.17;;;-1.20;1.00;;;;;;5057892;28;20498;-52
2023/03/01 06:05:24;;;;;;;25.57;17.27;;;-1.20;1.00;;;;;;5042587;28;20455;-56
2023/03/01 06:07:50;;;;;;;28.87;17.47;;;-1.20;1.00;;;;;;5050070;28;20454;-50
2023/03/01 06:10:17;;;;;;;23.37;16.67;;;-1.10;1.00;;;;;;5048453;28;20502;-53
2023/03/01 06:12:43;;;;;;;26.67;17.17;;;-1.10;1.00;;;;;;5049896;28;20452;-54
2023/03/01 06:15:11;;;;;;;21.77;16.33;;;-1.10;1.00;;;;;;5050389;28;20463;-54
2023/03/01 06:17:40;;;;;;;23.93;16.03;;;-1.10;1.00;;;;;;5045214;28;20464;-54
2023/03/01 06:20:09;;;;;;;22.07;17.17;;;-1.10;1.00;;;;;;5046970;28;20535;-55
2023/03/01 06:22:36;;;;;;;25.77;18.20;;;-1.10;1.00;;;;;;5047095;28;20444;-55
2023/03/01 06:25:02;;;;;;;32.40;17.70;;;-1.10;1.00;;;;;;5053957;28;20446;-55
2023/03/01 06:27:27;;;;;;;28.60;18.33;;;-1.10;1.00;;;;;;5055322;28;20463;-54
2023/03/01 06:29:53;;;;;;;30.83;17.83;;;-1.00;1.00;;;;;;5050621;28;20861;-55
2023/03/01 06:32:19;;;;;;;25.07;17.70;;;-1.00;1.00;;;;;;5051678;28;20198;-51
2023/03/01 06:34:45;;;;;;;30.23;18.97;;;-1.00;1.00;;;;;;5052239;28;20437;-51
2023/03/01 06:37:11;;;;;;;29.80;17.90;;;-0.90;1.00;;;;;;5049216;28;20443;-58
2023/03/01 06:39:36;;;;;;;24.77;17.60;;;-0.90;1.00;;;;;;5046098;28;20207;-53
2023/03/01 06:42:02;;;;;;;26.40;18.53;;;-0.80;1.00;;;;;;5051704;28;20448;-57
2023/03/01 06:44:28;;;;;;;27.40;17.60;;;-0.80;1.00;;;;;;5066558;28;20578;-52
2023/03/01 06:46:54;;;;;;;28.30;17.37;;;-0.80;1.00;;;;;;5044168;28;22025;-54
2023/03/01 06:49:20;;;;;;;25.90;17.10;;;-0.70;1.00;;;;;;5040635;28;20549;-53
2023/03/01 06:51:47;;;;;;;27.33;17.33;;;-0.70;1.00;;;;;;5044404;28;20279;-54
2023/03/01 06:54:13;;;;;;;23.10;16.27;;;-0.70;1.00;;;;;;5044305;28;20483;-52
2023/03/01 06:56:38;;;;;;;26.20;17.90;;;-0.60;1.00;;;;;;5051238;28;20449;-51
2023/03/01 06:59:04;;;;;;;29.80;17.83;;;-0.60;1.00;;;;;;5050389;28;20457;-53
2023/03/01 07:01:31;;;;;;;24.90;17.30;;;-0.50;1.00;;;;;;5050124;28;20637;-53
2023/03/01 07:03:57;;;;;;;25.87;16.90;;;-0.50;1.00;;;;;;5056814;28;20465;-54
2023/03/01 07:06:23;;;;;;;27.30;17.63;;;-0.40;1.00;;;;;;5069957;28;20429;-53
2023/03/01 07:08:49;;;;;;;28.60;16.50;;;-0.30;1.00;;;;;;5070181;28;20445;-54
2023/03/01 07:11:15;;;;;;;21.70;15.33;;;-0.30;1.00;;;;;;5069902;28;20554;-53
2023/03/01 07:13:41;;;;;;;31.30;16.60;;;-0.30;1.00;;;;;;5051290;28;20941;-54
2023/03/01 07:16:07;;;;;;;23.00;16.40;;;-0.30;1.00;;;;;;5068070;28;20837;-52
2023/03/01 07:18:32;;;;;;;27.63;16.93;;;-0.30;1.00;;;;;;5057249;28;20472;-53
2023/03/01 07:20:58;;;;;;;32.43;17.57;;;-0.10;1.00;;;;;;5069804;28;20514;-55
2023/03/01 07:23:24;;;;;;;26.93;16.70;;;0.00;1.00;;;;;;5061049;28;20287;-55
2023/03/01 07:25:53;;;;;;;23.47;17.50;;;0.00;1.00;;;;;;5053905;28;20252;-54
2023/03/01 07:28:19;;;;;;;25.13;17.50;;;0.20;1.00;;;;;;5049357;28;20196;-57
2023/03/01 07:30:45;;;;;;;30.10;17.03;;;0.20;1.00;;;;;;5050186;28;20452;-52
2023/03/01 07:33:11;;;;;;;23.33;17.10;;;0.30;1.00;;;;;;5069477;28;20444;-54
2023/03/01 07:35:36;;;;;;;25.23;17.37;;;0.40;1.00;;;;;;5059779;28;20219;-53
2023/03/01 07:38:02;;;;;;;25.13;17.70;;;0.50;1.00;;;;;;5063405;28;20201;-55
2023/03/01 07:40:27;;;;;;;30.83;20.00;;;0.60;1.00;;;;;;5068329;28;20206;-54
2023/03/01 07:42:57;;;;;;;29.83;18.27;;;0.80;1.00;;;;;;5049488;28;20448;-55
2023/03/01 07:45:24;;;;;;;23.03;18.47;;;1.10;1.00;;;;;;5046997;28;20243;-55
2023/03/01 07:47:51;;;;;;;27.87;19.17;;;1.40;1.00;;;;;;5048648;28;20953;-56
2023/03/01 07:50:17;;;;;;;24.33;17.40;;;1.70;1.00;;;;;;5066796;28;20470;-56
2023/03/01 07:52:45;;;;;;;26.00;18.60;;;1.70;1.00;;;;;;5065114;28;20520;-52
2023/03/01 07:55:11;;;;;;;28.47;18.83;;;1.70;1.00;;;;;;5050230;28;20442;-53
2023/03/01 07:57:37;;;;;;;26.60;18.50;;;1.70;1.00;;;;;;5049232;28;20452;-56
2023/03/01 08:00:04;;;;;;;28.60;17.73;;;1.70;1.00;;;;;;5067349;28;20946;-53
2023/03/01 08:02:29;;;;;;;28.40;17.50;;;1.70;1.00;;;;;;5067512;28;20662;-54
2023/03/01 08:04:55;;;;;;;30.90;20.13;;;1.90;1.00;;;;;;5069157;28;20434;-52
2023/03/01 08:07:20;;;;;;;26.07;19.47;;;2.00;1.00;;;;;;5069182;28;20210;-53
2023/03/01 08:09:46;;;;;;;26.67;19.63;;;2.20;1.00;;;;;;5069243;28;20243;-53
2023/03/01 08:12:12;;;;;;;23.73;18.10;;;2.50;1.00;;;;;;5053954;28;20280;-53
2023/03/01 08:14:37;;;;;;;29.93;18.43;;;2.80;1.00;;;;;;5049036;28;20190;-52
2023/03/01 08:17:03;;;;;;;24.17;19.40;;;2.90;1.00;;;;;;5048925;28;20211;-53
2023/03/01 08:19:29;;;;;;;32.20;20.77;;;3.10;1.00;;;;;;5059508;28;20207;-55
2023/03/01 08:21:57;;;;;;;26.90;18.30;;;3.10;1.00;;;;;;5059553;28;20211;-52
2023/03/01 08:24:23;;;;;;;31.73;19.50;;;2.80;1.00;;;;;;5061090;28;20468;-53
2023/03/01 08:26:49;;;;;;;25.40;19.00;;;2.70;1.00;;;;;;5048635;28;20929;-52
2023/03/01 08:29:14;;;;;;;24.70;17.80;;;2.70;1.00;;;;;;5048936;28;20202;-55
2023/03/01 08:31:40;;;;;;;25.97;20.80;;;2.80;1.00;;;;;;5048658;28;20193;-53
2023/03/01 08:34:09;;;;;;;23.67;18.77;;;2.90;1.00;;;;;;5048501;28;20181;-55
2023/03/01 08:36:40;;;;;;;32.13;20.40;;;2.90;1.00;;;;;;5067466;28;20565;-54
2023/03/01 08:39:08;;;;;;;30.87;20.10;;;2.90;1.00;;;;;;5060475;28;20843;-54
2023/03/01 08:41:33;;;;;;;25.57;19.90;;;2.90;1.00;;;;;;5057597;28;20465;-54
2023/03/01 08:43:59;;;;;;;30.27;19.93;;;3.00;1.00;;;;;;5068539;28;20469;-52
2023/03/01 08:46:30;;;;;;;24.27;17.83;;;3.20;1.00;;;;;;5068555;28;20303;-51
2023/03/01 08:48:56;;;;;;;30.63;21.00;;;3.20;1.00;;;;;;5059524;28;20706;-54
2023/03/01 08:51:22;;;;;;;28.43;20.00;;;3.30;1.00;;;;;;5048911;28;20529;-55
2023/03/01 08:53:48;;;;;;;30.23;20.10;;;3.40;1.00;;;;;;5048340;28;20507;-56
2023/03/01 08:56:14;;;;;;;28.80;21.97;;;3.50;1.00;;;;;;5048289;28;20470;-52
2023/03/01 08:58:44;;;;;;;34.73;20.67;;;3.50;1.00;;;;;;5048853;28;20246;-55
2023/03/01 09:01:12;;;;;;;31.40;19.73;;;3.70;1.00;;;;;;5052346;28;20536;-55
2023/03/01 09:03:38;;;;;;;26.30;19.73;;;3.80;1.00;;;;;;5055010;28;20430;-53
2023/03/01 09:06:05;;;;;;;24.77;19.60;;;3.90;1.00;;;;;;5054173;28;20489;-53
2023/03/01 09:08:38;;;;;;;31.23;19.93;;;4.10;1.00;;;;;;5052021;28;20184;-51
2023/03/01 09:11:05;;;;;;;30.10;21.63;;;4.20;1.00;;;;;;5051976;28;20438;-51
2023/03/01 09:13:31;;;;;;;29.50;19.10;;;4.10;1.00;;;;;;5051816;28;20441;-53
2023/03/01 09:16:02;;;;;;;26.50;21.13;;;4.30;1.00;;;;;;5051447;28;20888;-53
2023/03/01 09:18:28;;;;;;;28.83;19.90;;;4.40;1.00;;;;;;5058489;28;20191;-54
2023/03/01 09:21:07;;;;;;;26.23;20.23;;;4.70;1.00;;;;;;5064607;28;20883;-52
2023/03/01 09:23:39;;;;;;;27.47;19.80;;;4.90;1.00;;;;;;5051724;28;20932;-55
2023/03/01 09:26:09;;;;;;;25.80;20.63;;;4.90;1.00;;;;;;5057875;28;20449;-53
2023/03/01 09:28:36;;;;;;;32.70;21.40;;;4.90;1.00;;;;;;5072126;28;20465;-54
2023/03/01 09:31:02;;;;;;;28.70;20.00;;;5.00;1.00;;;;;;5058139;28;20461;-53
2023/03/01 09:33:29;;;;;;;32.27;22.80;;;5.10;1.00;;;;;;5051771;28;20595;-53
2023/03/01 09:36:04;;;;;;;27.40;20.33;;;5.20;1.00;;;;;;5051660;28;20955;-56
2023/03/01 09:38:30;;;;;;;27.17;19.27;;;5.50;1.00;;;;;;5051592;28;20463;-54
2023/03/01 09:40:56;;;;;;;26.90;20.17;;;5.30;1.00;;;;;;5051483;28;20644;-53
2023/03/01 09:43:31;;;;;;;28.70;20.47;;;5.30;1.00;;;;;;5051664;28;20539;-56
2023/03/01 09:46:03;;;;;;;24.40;19.53;;;5.40;1.00;;;;;;5056701;28;20296;-54
2023/03/01 09:48:38;;;;;;;24.83;20.00;;;5.50;1.00;;;;;;5071416;28;20443;-56
2023/03/01 09:51:14;;;;;;;28.93;21.87;;;5.60;1.00;;;;;;5071476;28;20452;-52
2023/03/01 09:53:40;;;;;;;32.37;21.70;;;5.80;1.00;;;;;;5071371;28;21161;-55
2023/03/01 09:56:18;;;;;;;27.03;19.23;;;6.10;1.00;;;;;;5071641;28;20434;-55
2023/03/01 09:59:08;;;;;;;31.90;21.07;;;6.10;1.00;;;;;;5059248;28;20230;-54
2023/03/01 10:01:48;;;;;;;28.87;20.40;;;6.20;1.00;;;;;;5051880;28;20505;-53
2023/03/01 10:04:35;;;;;;;32.13;22.83;;;6.30;1.00;;;;;;5051153;28;20445;-55
2023/03/01 10:07:09;;;;;;;27.27;20.87;;;6.40;1.00;;;;;;5051497;28;20844;-53
2023/03/01 10:09:38;;;;;;;33.93;21.80;;;6.50;1.00;;;;;;5051135;28;20824;-56
2023/03/01 10:12:18;;;;;;;30.30;20.10;;;6.40;1.00;;;;;;5050245;28;20901;-55
2023/03/01 10:14:59;;;;;;;31.47;21.43;;;6.40;1.00;;;;;;5055689;28;20536;-54
2023/03/01 10:17:44;;;;;;;25.63;19.03;;;6.50;1.00;;;;;;5050988;28;20439;-56
2023/03/01 10:20:25;;;;;;;31.67;20.57;;;6.50;1.00;;;;;;5050902;28;20499;-54
2023/03/01 10:22:52;;;;;;;25.43;18.37;;;6.60;1.00;;;;;;5054108;28;20445;-55
2023/03/01 10:25:42;;;;;;;29.70;18.63;;;6.70;1.00;;;;;;5055837;28;20454;-52
2023/03/01 10:28:17;;;;;;;29.90;20.23;;;6.90;1.00;;;;;;5050615;28;20458;-53
2023/03/01 10:30:43;;;;;;;30.10;19.83;;;7.00;1.00;;;;;;5050975;28;20673;-57
2023/03/01 10:33:26;;;;;;;22.80;17.60;;;7.30;1.00;;;;;;5051510;28;20529;-54
2023/03/01 10:35:52;;;;;;;27.30;19.27;;;7.40;1.00;;;;;;5065531;28;20740;-55
2023/03/01 10:38:22;;;;;;;36.03;20.60;;;7.50;1.00;;;;;;5055465;28;20450;-54
2023/03/01 10:40:59;;;;;;;25.33;18.70;;;7.60;1.00;;;;;;5050398;28;20490;-53
2023/03/01 10:43:45;;;;;;;29.73;22.13;;;7.70;1.00;;;;;;5068739;28;20441;-53
2023/03/01 10:46:34;;;;;;;27.33;20.20;;;7.70;1.00;;;;;;5070096;28;20967;-54
2023/03/01 10:49:20;;;;;;;27.70;20.20;;;7.70;1.00;;;;;;5051073;28;20778;-53
2023/03/01 10:51:48;;;;;;;26.20;20.40;;;7.90;1.00;;;;;;5050395;28;20427;-55
2023/03/01 10:54:18;;;;;;;25.03;19.47;;;7.90;1.00;;;;;;5050122;28;20468;-52
2023/03/01 10:56:55;;;;;;;24.90;17.80;;;8.00;1.00;;;;;;5053082;28;20426;-53
2023/03/01 10:59:41;;;;;;;24.93;18.47;;;7.90;1.00;;;;;;5049916;28;20427;-55
2023/03/01 11:02:17;;;;;;;30.93;18.23;;;7.90;1.00;;;;;;5052700;28;20449;-55
2023/03/01 11:05:16;;;;;;;21.73;15.90;;;8.00;1.00;;;;;;5060658;28;20450;-53
2023/03/01 11:07:50;;;;;;;23.33;15.63;;;8.10;1.00;;;;;;5050188;28;20442;-54
2023/03/01 11:10:24;;;;;;;18.37;15.50;;;8.20;1.00;;;;;;5050041;28;20536;-54
2023/03/01 11:13:05;;;;;;;26.27;16.67;;;8.20;1.00;;;;;;5054395;28;20437;-52
2023/03/01 11:15:30;;;;;;;20.80;15.77;;;8.40;1.00;;;;;;5050186;28;20480;-55
2023/03/01 11:17:57;;;;;;;19.77;16.40;;;8.50;1.00;;;;;;5051871;28;20936;-54
2023/03/01 11:20:34;;;;;;;18.60;13.87;;;8.50;1.00;;;;;;5049733;28;20201;-53
2023/03/01 11:23:06;;;;;;;18.33;15.50;;;8.50;1.00;;;;;;5048754;28;20959;-53
2023/03/01 11:25:36;;;;;;;24.20;15.90;;;8.60;1.00;;;;;;5049515;28;20538;-55
2023/03/01 11:28:03;;;;;;;19.47;14.77;;;8.60;1.00;;;;;;5049585;28;20425;-52
2023/03/01 11:30:42;;;;;;;18.03;13.80;;;8.40;1.00;;;;;;5050226;28;20439;-52
2023/03/01 11:33:30;;;;;;;16.87;13.93;;;8.20;1.00;;;;;;5049657;28;20446;-53
2023/03/01 11:36:06;;;;;;;18.53;13.80;;;8.10;1.00;;;;;;5049488;28;20512;-55
2023/03/01 11:38:36;;;;;;;18.23;14.00;;;8.10;1.00;;;;;;5049606;28;20676;-54
2023/03/01 11:41:21;;;;;;;19.17;13.40;;;8.10;1.00;;;;;;5049099;28;20469;-54
2023/03/01 11:44:14;;;;;;;17.97;13.70;;;8.00;1.00;;;;;;5045570;28;20454;-54
2023/03/01 11:46:51;;;;;;;17.80;13.23;;;8.00;1.00;;;;;;5047856;28;20447;-53
2023/03/01 11:49:37;;;;;;;21.30;14.03;;;8.00;1.00;;;;;;5049328;28;20804;-54
2023/03/01 11:52:16;;;;;;;23.00;13.70;;;8.20;1.00;;;;;;5049077;28;20447;-55
2023/03/01 11:55:13;;;;;;;17.50;14.33;;;8.50;1.00;;;;;;5049145;28;20453;-53
2023/03/01 11:58:05;;;;;;;16.10;12.60;;;8.90;1.00;;;;;;5049331;28;20443;-53
2023/03/01 12:00:30;;;;;;;14.87;11.43;;;8.80;1.00;;;;;;5048930;28;20471;-53
2023/03/01 12:02:59;;;;;;;17.60;12.30;;;8.60;1.00;;;;;;5049630;28;20469;-53
2023/03/01 12:06:12;;;;;;;18.97;13.00;;;8.50;1.00;;;;;;5048348;28;20206;-53
2023/03/01 12:08:47;;;;;;;18.60;12.60;;;8.50;1.00;;;;;;5044716;28;20464;-56
2023/03/01 12:11:24;;;;;;;13.20;11.20;;;8.70;1.00;;;;;;5062631;28;20437;-52
2023/03/01 12:14:12;;;;;;;13.67;11.00;;;8.60;1.00;;;;;;5068987;28;20461;-54
2023/03/01 12:17:23;;;;;;;13.17;11.03;;;8.40;1.00;;;;;;5062776;28;20874;-54
2023/03/01 12:20:09;;;;;;;18.03;12.27;;;8.30;1.00;;;;;;5048338;28;20473;-54
2023/03/01 12:23:04;;;;;;;16.03;11.97;;;8.00;1.00;;;;;;5049099;28;20454;-53
2023/03/01 12:25:41;;;;;;;15.47;12.30;;;7.70;1.00;;;;;;5034773;28;20479;-55
2023/03/01 12:28:28;;;;;;;20.13;13.40;;;7.60;99.90;;;;;;5054980;28;20447;-54
2023/03/01 12:31:12;;;;;;;18.07;13.50;;;7.50;1.00;;;;;;5047431;28;20954;-53
2023/03/01 12:33:56;;;;;;;17.67;13.03;;;7.70;1.00;;;;;;5045533;28;20995;-54
2023/03/01 12:36:40;;;;;;;18.27;13.90;;;8.00;1.00;;;;;;5052886;28;20450;-55
2023/03/01 12:39:27;;;;;;;22.60;15.90;;;8.20;1.00;;;;;;5061518;28;20504;-53
2023/03/01 12:42:11;;;;;;;22.67;15.33;;;8.40;1.00;;;;;;5052634;28;20960;-53
2023/03/01 12:45:05;;;;;;;22.03;15.90;;;8.60;1.00;;;;;;5059250;28;21290;-54
2023/03/01 12:47:45;;;;;;;22.13;15.63;;;8.80;1.00;;;;;;5058620;28;20449;-55
2023/03/01 12:50:23;;;;;;;25.77;15.30;;;8.90;1.00;;;;;;5056389;28;20570;-55
2023/03/01 12:52:53;;;;;;;19.97;15.23;;;9.10;1.00;;;;;;5061764;28;20523;-53
2023/03/01 12:55:35;;;;;;;22.97;14.53;;;8.90;1.00;;;;;;5038842;28;20447;-53
2023/03/01 12:58:31;;;;;;;20.40;13.73;;;9.00;1.00;;;;;;5068767;28;20974;-53
2023/03/01 13:01:30;;;;;;;20.70;15.10;;;8.70;1.00;;;;;;5057275;28;20470;-51